sensor_id;sensor_type;location;lat;lon;timestamp;temperature;humidity
324;DHT22;149;51.094;17.002;2022-12-07T00:01:46;4.20;99.90
324;DHT22;149;51.094;17.002;2022-12-07T00:04:27;3.30;99.90
324;DHT22;149;51.094;17.002;2022-12-07T00:06:55;3.30;99.90
324;DHT22;149;51.094;17.002;2022-12-07T00:09:23;3.40;99.90
324;DHT22;149;51.094;17.002;2022-12-07T00:11:53;3.40;99.90
324;DHT22;149;51.094;17.002;2022-12-07T00:14:21;3.40;99.90
324;DHT22;149;51.094;17.002;2022-12-07T00:16:51;3.40;99.90
324;DHT22;149;51.094;17.002;2022-12-07T00:19:24;3.40;99.90
324;DHT22;149;51.094;17.002;2022-12-07T00:21:53;3.30;99.90
324;DHT22;149;51.094;17.002;2022-12-07T00:24:50;3.30;99.90
324;DHT22;149;51.094;17.002;2022-12-07T00:27:19;3.40;99.90
324;DHT22;149;51.094;17.002;2022-12-07T00:29:50;3.30;99.90
324;DHT22;149;51.094;17.002;2022-12-07T00:32:22;3.30;99.90
324;DHT22;149;51.094;17.002;2022-12-07T00:35:14;3.30;99.90
324;DHT22;149;51.094;17.002;2022-12-07T00:37:50;3.20;99.90
324;DHT22;149;51.094;17.002;2022-12-07T00:40:28;3.10;99.90
324;DHT22;149;51.094;17.002;2022-12-07T00:42:59;3.30;99.90
324;DHT22;149;51.094;17.002;2022-12-07T00:45:28;3.20;99.90
324;DHT22;149;51.094;17.002;2022-12-07T00:47:56;3.20;99.90
324;DHT22;149;51.094;17.002;2022-12-07T00:50:23;3.10;99.90
324;DHT22;149;51.094;17.002;2022-12-07T00:52:50;3.20;99.90
324;DHT22;149;51.094;17.002;2022-12-07T00:55:17;3.20;99.90
324;DHT22;149;51.094;17.002;2022-12-07T00:57:44;3.10;99.90
324;DHT22;149;51.094;17.002;2022-12-07T01:00:12;3.20;99.90
324;DHT22;149;51.094;17.002;2022-12-07T01:02:39;3.20;99.90
324;DHT22;149;51.094;17.002;2022-12-07T01:05:06;3.20;99.90
324;DHT22;149;51.094;17.002;2022-12-07T01:07:33;3.20;99.90
324;DHT22;149;51.094;17.002;2022-12-07T01:10:01;3.10;99.90
324;DHT22;149;51.094;17.002;2022-12-07T01:12:28;3.10;99.90
324;DHT22;149;51.094;17.002;2022-12-07T01:14:55;3.20;99.90
324;DHT22;149;51.094;17.002;2022-12-07T01:17:22;3.30;99.90
324;DHT22;149;51.094;17.002;2022-12-07T01:19:49;3.20;99.90
324;DHT22;149;51.094;17.002;2022-12-07T01:22:16;3.30;99.90
324;DHT22;149;51.094;17.002;2022-12-07T01:24:43;3.10;99.90
324;DHT22;149;51.094;17.002;2022-12-07T01:27:10;3.10;99.90
324;DHT22;149;51.094;17.002;2022-12-07T01:29:37;3.20;99.90
324;DHT22;149;51.094;17.002;2022-12-07T01:32:04;3.20;99.90
324;DHT22;149;51.094;17.002;2022-12-07T01:34:32;3.20;99.90
324;DHT22;149;51.094;17.002;2022-12-07T01:36:59;3.20;99.90
324;DHT22;149;51.094;17.002;2022-12-07T01:39:25;3.20;99.90
324;DHT22;149;51.094;17.002;2022-12-07T01:41:53;3.20;99.90
324;DHT22;149;51.094;17.002;2022-12-07T01:44:30;3.20;99.90
324;DHT22;149;51.094;17.002;2022-12-07T01:47:04;3.20;99.90
324;DHT22;149;51.094;17.002;2022-12-07T01:49:52;3.20;99.90
324;DHT22;149;51.094;17.002;2022-12-07T01:52:29;3.10;99.90
324;DHT22;149;51.094;17.002;2022-12-07T01:55:00;3.20;99.90
324;DHT22;149;51.094;17.002;2022-12-07T01:57:30;3.30;99.90
324;DHT22;149;51.094;17.002;2022-12-07T01:59:58;3.10;99.90
324;DHT22;149;51.094;17.002;2022-12-07T02:02:40;3.20;99.90
324;DHT22;149;51.094;17.002;2022-12-07T02:05:10;3.10;99.90
324;DHT22;149;51.094;17.002;2022-12-07T02:07:38;3.20;99.90
324;DHT22;149;51.094;17.002;2022-12-07T02:10:18;3.10;99.90
324;DHT22;149;51.094;17.002;2022-12-07T02:12:48;3.10;99.90
324;DHT22;149;51.094;17.002;2022-12-07T02:15:16;3.10;99.90
324;DHT22;149;51.094;17.002;2022-12-07T02:31:28;3.30;99.90
324;DHT22;149;51.094;17.002;2022-12-07T02:34:19;3.00;99.90
324;DHT22;149;51.094;17.002;2022-12-07T02:36:55;2.90;99.90
324;DHT22;149;51.094;17.002;2022-12-07T02:42:17;2.90;99.90
324;DHT22;149;51.094;17.002;2022-12-07T02:44:46;2.90;99.90
324;DHT22;149;51.094;17.002;2022-12-07T02:47:16;2.90;99.90
324;DHT22;149;51.094;17.002;2022-12-07T02:49:45;2.90;99.90
324;DHT22;149;51.094;17.002;2022-12-07T02:52:12;2.90;99.90
324;DHT22;149;51.094;17.002;2022-12-07T02:54:39;3.00;99.90
324;DHT22;149;51.094;17.002;2022-12-07T02:59:54;2.80;99.90
324;DHT22;149;51.094;17.002;2022-12-07T03:02:26;3.20;99.90
324;DHT22;149;51.094;17.002;2022-12-07T03:07:46;2.80;99.90
324;DHT22;149;51.094;17.002;2022-12-07T03:18:21;2.80;99.90
324;DHT22;149;51.094;17.002;2022-12-07T03:20:53;2.80;99.90
324;DHT22;149;51.094;17.002;2022-12-07T03:23:23;2.80;99.90
324;DHT22;149;51.094;17.002;2022-12-07T03:25:56;2.80;99.90
324;DHT22;149;51.094;17.002;2022-12-07T03:28:31;2.80;99.90
324;DHT22;149;51.094;17.002;2022-12-07T03:31:21;2.80;99.90
324;DHT22;149;51.094;17.002;2022-12-07T03:34:06;2.80;99.90
324;DHT22;149;51.094;17.002;2022-12-07T03:36:40;2.80;99.90
324;DHT22;149;51.094;17.002;2022-12-07T03:39:39;2.60;99.90
324;DHT22;149;51.094;17.002;2022-12-07T03:42:08;2.70;99.90
324;DHT22;149;51.094;17.002;2022-12-07T03:44:38;2.80;99.90
324;DHT22;149;51.094;17.002;2022-12-07T03:52:47;3.00;99.90
324;DHT22;149;51.094;17.002;2022-12-07T03:55:27;3.00;99.90
324;DHT22;149;51.094;17.002;2022-12-07T03:58:01;3.00;99.90
324;DHT22;149;51.094;17.002;2022-12-07T04:00:29;3.10;99.90
324;DHT22;149;51.094;17.002;2022-12-07T04:02:56;3.20;99.90
324;DHT22;149;51.094;17.002;2022-12-07T04:05:24;3.10;99.90
324;DHT22;149;51.094;17.002;2022-12-07T04:07:51;3.00;99.90
324;DHT22;149;51.094;17.002;2022-12-07T04:10:18;3.00;99.90
324;DHT22;149;51.094;17.002;2022-12-07T04:12:45;3.00;99.90
324;DHT22;149;51.094;17.002;2022-12-07T04:15:12;3.00;99.90
324;DHT22;149;51.094;17.002;2022-12-07T04:17:46;3.10;99.90
324;DHT22;149;51.094;17.002;2022-12-07T04:20:14;3.20;99.90
324;DHT22;149;51.094;17.002;2022-12-07T04:22:41;3.10;99.90
324;DHT22;149;51.094;17.002;2022-12-07T04:25:10;3.10;99.90
324;DHT22;149;51.094;17.002;2022-12-07T04:27:41;2.90;99.90
324;DHT22;149;51.094;17.002;2022-12-07T04:30:08;3.00;99.90
324;DHT22;149;51.094;17.002;2022-12-07T04:32:36;2.90;99.90
324;DHT22;149;51.094;17.002;2022-12-07T04:35:03;2.90;99.90
324;DHT22;149;51.094;17.002;2022-12-07T04:37:33;2.90;99.90
324;DHT22;149;51.094;17.002;2022-12-07T04:40:02;2.90;99.90
324;DHT22;149;51.094;17.002;2022-12-07T04:42:31;2.90;99.90
324;DHT22;149;51.094;17.002;2022-12-07T04:44:57;2.90;99.90
324;DHT22;149;51.094;17.002;2022-12-07T04:47:26;2.90;99.90
324;DHT22;149;51.094;17.002;2022-12-07T04:49:53;3.00;99.90
324;DHT22;149;51.094;17.002;2022-12-07T04:52:21;3.20;99.90
324;DHT22;149;51.094;17.002;2022-12-07T04:54:53;2.90;99.90
324;DHT22;149;51.094;17.002;2022-12-07T04:57:24;3.00;99.90
324;DHT22;149;51.094;17.002;2022-12-07T05:00:07;3.00;99.90
324;DHT22;149;51.094;17.002;2022-12-07T05:02:37;3.00;99.90
324;DHT22;149;51.094;17.002;2022-12-07T05:05:07;3.30;99.90
324;DHT22;149;51.094;17.002;2022-12-07T05:07:35;2.90;99.90
324;DHT22;149;51.094;17.002;2022-12-07T05:10:03;3.10;99.90
324;DHT22;149;51.094;17.002;2022-12-07T05:12:33;3.10;99.90
324;DHT22;149;51.094;17.002;2022-12-07T05:15:00;3.00;99.90
324;DHT22;149;51.094;17.002;2022-12-07T05:17:28;3.10;99.90
324;DHT22;149;51.094;17.002;2022-12-07T05:19:55;3.10;99.90
324;DHT22;149;51.094;17.002;2022-12-07T05:22:21;3.20;99.90
324;DHT22;149;51.094;17.002;2022-12-07T05:24:51;3.20;99.90
324;DHT22;149;51.094;17.002;2022-12-07T05:27:17;3.20;99.90
324;DHT22;149;51.094;17.002;2022-12-07T05:29:45;3.20;99.90
324;DHT22;149;51.094;17.002;2022-12-07T05:32:12;3.20;99.90
324;DHT22;149;51.094;17.002;2022-12-07T05:34:38;3.20;99.90
324;DHT22;149;51.094;17.002;2022-12-07T05:37:05;3.40;99.90
324;DHT22;149;51.094;17.002;2022-12-07T05:39:32;3.20;99.90
324;DHT22;149;51.094;17.002;2022-12-07T05:41:59;3.30;99.90
324;DHT22;149;51.094;17.002;2022-12-07T05:44:44;3.10;99.90
324;DHT22;149;51.094;17.002;2022-12-07T05:47:12;3.30;99.90
324;DHT22;149;51.094;17.002;2022-12-07T05:49:40;3.10;99.90
324;DHT22;149;51.094;17.002;2022-12-07T05:52:07;2.90;99.90
324;DHT22;149;51.094;17.002;2022-12-07T05:54:35;3.10;99.90
324;DHT22;149;51.094;17.002;2022-12-07T05:57:02;3.10;99.90
324;DHT22;149;51.094;17.002;2022-12-07T05:59:30;3.20;99.90
324;DHT22;149;51.094;17.002;2022-12-07T06:02:02;3.10;99.90
324;DHT22;149;51.094;17.002;2022-12-07T06:04:33;3.00;99.90
324;DHT22;149;51.094;17.002;2022-12-07T06:07:00;3.10;99.90
324;DHT22;149;51.094;17.002;2022-12-07T06:09:28;3.10;99.90
324;DHT22;149;51.094;17.002;2022-12-07T06:11:57;3.10;99.90
324;DHT22;149;51.094;17.002;2022-12-07T06:14:45;3.00;99.90
324;DHT22;149;51.094;17.002;2022-12-07T06:17:12;3.00;99.90
324;DHT22;149;51.094;17.002;2022-12-07T06:19:39;3.00;99.90
324;DHT22;149;51.094;17.002;2022-12-07T06:22:11;2.90;99.90
324;DHT22;149;51.094;17.002;2022-12-07T06:24:52;3.20;99.90
324;DHT22;149;51.094;17.002;2022-12-07T06:27:20;3.10;99.90
324;DHT22;149;51.094;17.002;2022-12-07T06:29:48;3.10;99.90
324;DHT22;149;51.094;17.002;2022-12-07T06:32:16;3.10;99.90
324;DHT22;149;51.094;17.002;2022-12-07T06:34:44;3.10;99.90
324;DHT22;149;51.094;17.002;2022-12-07T06:37:15;3.10;99.90
324;DHT22;149;51.094;17.002;2022-12-07T06:39:48;3.10;99.90
324;DHT22;149;51.094;17.002;2022-12-07T06:42:15;3.50;99.90
324;DHT22;149;51.094;17.002;2022-12-07T06:44:42;3.10;99.90
324;DHT22;149;51.094;17.002;2022-12-07T06:47:10;3.60;99.90
324;DHT22;149;51.094;17.002;2022-12-07T06:49:57;3.20;99.90
324;DHT22;149;51.094;17.002;2022-12-07T06:52:25;3.20;99.90
324;DHT22;149;51.094;17.002;2022-12-07T06:54:52;3.40;99.90
324;DHT22;149;51.094;17.002;2022-12-07T06:57:19;3.50;99.90
324;DHT22;149;51.094;17.002;2022-12-07T06:59:47;3.40;99.90
324;DHT22;149;51.094;17.002;2022-12-07T07:02:13;3.30;99.90
324;DHT22;149;51.094;17.002;2022-12-07T07:04:40;3.30;99.90
324;DHT22;149;51.094;17.002;2022-12-07T07:07:07;3.40;99.90
324;DHT22;149;51.094;17.002;2022-12-07T07:09:37;3.30;99.90
324;DHT22;149;51.094;17.002;2022-12-07T07:12:04;3.20;99.90
324;DHT22;149;51.094;17.002;2022-12-07T07:14:30;3.20;99.90
324;DHT22;149;51.094;17.002;2022-12-07T07:16:57;3.20;99.90
324;DHT22;149;51.094;17.002;2022-12-07T07:19:25;3.20;99.90
324;DHT22;149;51.094;17.002;2022-12-07T07:21:51;3.20;99.90
324;DHT22;149;51.094;17.002;2022-12-07T07:24:18;3.20;99.90
324;DHT22;149;51.094;17.002;2022-12-07T07:26:45;3.20;99.90
324;DHT22;149;51.094;17.002;2022-12-07T07:29:12;3.20;99.90
324;DHT22;149;51.094;17.002;2022-12-07T07:31:47;3.20;99.90
324;DHT22;149;51.094;17.002;2022-12-07T07:34:13;3.00;99.90
324;DHT22;149;51.094;17.002;2022-12-07T07:36:40;3.10;99.90
324;DHT22;149;51.094;17.002;2022-12-07T07:39:07;3.10;99.90
324;DHT22;149;51.094;17.002;2022-12-07T07:41:34;3.30;99.90
324;DHT22;149;51.094;17.002;2022-12-07T07:44:03;3.60;99.90
324;DHT22;149;51.094;17.002;2022-12-07T07:46:31;4.00;99.90
324;DHT22;149;51.094;17.002;2022-12-07T07:49:00;4.10;99.90
324;DHT22;149;51.094;17.002;2022-12-07T07:51:27;4.40;99.90
324;DHT22;149;51.094;17.002;2022-12-07T07:53:56;4.60;99.90
324;DHT22;149;51.094;17.002;2022-12-07T07:56:26;4.30;99.90
324;DHT22;149;51.094;17.002;2022-12-07T07:58:54;4.20;99.90
324;DHT22;149;51.094;17.002;2022-12-07T08:01:22;4.20;99.90
324;DHT22;149;51.094;17.002;2022-12-07T08:03:49;4.10;99.90
324;DHT22;149;51.094;17.002;2022-12-07T08:06:17;4.10;99.90
324;DHT22;149;51.094;17.002;2022-12-07T08:08:44;4.00;99.90
324;DHT22;149;51.094;17.002;2022-12-07T08:11:11;4.20;99.90
324;DHT22;149;51.094;17.002;2022-12-07T08:13:39;3.80;99.90
324;DHT22;149;51.094;17.002;2022-12-07T08:16:09;3.50;99.90
324;DHT22;149;51.094;17.002;2022-12-07T08:18:39;3.50;99.90
324;DHT22;149;51.094;17.002;2022-12-07T08:21:07;3.70;99.90
324;DHT22;149;51.094;17.002;2022-12-07T08:23:39;3.70;99.90
324;DHT22;149;51.094;17.002;2022-12-07T08:26:12;3.80;99.90
324;DHT22;149;51.094;17.002;2022-12-07T08:28:39;4.00;99.90
324;DHT22;149;51.094;17.002;2022-12-07T08:31:10;4.00;99.90
324;DHT22;149;51.094;17.002;2022-12-07T08:33:38;4.20;99.90
324;DHT22;149;51.094;17.002;2022-12-07T08:36:09;4.20;99.90
324;DHT22;149;51.094;17.002;2022-12-07T08:38:40;4.10;99.90
324;DHT22;149;51.094;17.002;2022-12-07T08:41:23;4.50;99.90
324;DHT22;149;51.094;17.002;2022-12-07T08:43:52;4.20;99.90
324;DHT22;149;51.094;17.002;2022-12-07T08:46:33;4.20;99.90
324;DHT22;149;51.094;17.002;2022-12-07T08:49:13;4.40;99.90
324;DHT22;149;51.094;17.002;2022-12-07T08:51:42;4.50;99.90
324;DHT22;149;51.094;17.002;2022-12-07T08:54:16;4.50;99.90
324;DHT22;149;51.094;17.002;2022-12-07T08:56:44;4.50;99.90
324;DHT22;149;51.094;17.002;2022-12-07T08:59:14;4.70;99.90
324;DHT22;149;51.094;17.002;2022-12-07T09:01:42;4.80;99.90
324;DHT22;149;51.094;17.002;2022-12-07T09:04:11;5.00;99.90
324;DHT22;149;51.094;17.002;2022-12-07T09:06:39;5.10;99.90
324;DHT22;149;51.094;17.002;2022-12-07T09:09:06;5.20;99.90
324;DHT22;149;51.094;17.002;2022-12-07T09:11:35;6.30;99.90
324;DHT22;149;51.094;17.002;2022-12-07T09:14:03;6.60;99.90
324;DHT22;149;51.094;17.002;2022-12-07T09:16:36;5.50;99.90
324;DHT22;149;51.094;17.002;2022-12-07T09:19:03;5.80;99.90
324;DHT22;149;51.094;17.002;2022-12-07T09:21:33;5.70;99.90
324;DHT22;149;51.094;17.002;2022-12-07T09:24:03;5.90;99.90
324;DHT22;149;51.094;17.002;2022-12-07T09:26:30;5.90;99.90
324;DHT22;149;51.094;17.002;2022-12-07T09:29:06;6.10;99.90
324;DHT22;149;51.094;17.002;2022-12-07T09:31:37;6.20;99.90
324;DHT22;149;51.094;17.002;2022-12-07T09:34:05;6.30;99.90
324;DHT22;149;51.094;17.002;2022-12-07T09:36:34;6.30;99.90
324;DHT22;149;51.094;17.002;2022-12-07T09:39:04;6.40;99.90
324;DHT22;149;51.094;17.002;2022-12-07T09:41:32;6.70;99.90
324;DHT22;149;51.094;17.002;2022-12-07T09:44:26;6.70;99.90
324;DHT22;149;51.094;17.002;2022-12-07T09:46:55;6.70;99.90
324;DHT22;149;51.094;17.002;2022-12-07T09:49:25;6.40;99.90
324;DHT22;149;51.094;17.002;2022-12-07T09:54:47;6.50;99.90
324;DHT22;149;51.094;17.002;2022-12-07T09:57:17;6.40;99.90
324;DHT22;149;51.094;17.002;2022-12-07T09:59:44;6.80;99.90
324;DHT22;149;51.094;17.002;2022-12-07T10:05:10;6.30;99.90
324;DHT22;149;51.094;17.002;2022-12-07T10:07:47;6.40;99.90
324;DHT22;149;51.094;17.002;2022-12-07T10:10:25;6.70;99.90
324;DHT22;149;51.094;17.002;2022-12-07T10:15:45;7.00;99.90
324;DHT22;149;51.094;17.002;2022-12-07T10:18:30;7.00;99.90
324;DHT22;149;51.094;17.002;2022-12-07T10:23:43;7.00;99.90
324;DHT22;149;51.094;17.002;2022-12-07T10:27:00;7.50;99.90
324;DHT22;149;51.094;17.002;2022-12-07T10:29:33;6.70;99.90
324;DHT22;149;51.094;17.002;2022-12-07T10:32:32;6.60;99.90
324;DHT22;149;51.094;17.002;2022-12-07T10:37:53;6.20;99.90
324;DHT22;149;51.094;17.002;2022-12-07T10:40:35;6.40;99.90
324;DHT22;149;51.094;17.002;2022-12-07T10:46:04;6.40;99.90
324;DHT22;149;51.094;17.002;2022-12-07T10:49:24;5.70;99.90
324;DHT22;149;51.094;17.002;2022-12-07T10:55:11;5.70;99.90
324;DHT22;149;51.094;17.002;2022-12-07T10:58:03;5.50;99.90
324;DHT22;149;51.094;17.002;2022-12-07T11:09:38;4.90;99.90
324;DHT22;149;51.094;17.002;2022-12-07T11:12:37;4.80;99.90
324;DHT22;149;51.094;17.002;2022-12-07T11:15:28;5.10;99.90
324;DHT22;149;51.094;17.002;2022-12-07T11:18:03;4.70;99.90
324;DHT22;149;51.094;17.002;2022-12-07T11:20:43;4.80;99.90
324;DHT22;149;51.094;17.002;2022-12-07T11:37:35;5.10;99.90
324;DHT22;149;51.094;17.002;2022-12-07T11:40:33;5.00;99.90
324;DHT22;149;51.094;17.002;2022-12-07T11:43:18;5.00;99.90
324;DHT22;149;51.094;17.002;2022-12-07T11:46:13;4.90;99.90
324;DHT22;149;51.094;17.002;2022-12-07T11:49:02;4.90;99.90
324;DHT22;149;51.094;17.002;2022-12-07T11:51:34;4.90;99.90
324;DHT22;149;51.094;17.002;2022-12-07T11:54:11;4.90;99.90
324;DHT22;149;51.094;17.002;2022-12-07T11:56:39;5.30;99.90
324;DHT22;149;51.094;17.002;2022-12-07T11:59:19;5.00;99.90
324;DHT22;149;51.094;17.002;2022-12-07T12:07:19;5.00;99.90
324;DHT22;149;51.094;17.002;2022-12-07T12:10:37;4.90;99.90
324;DHT22;149;51.094;17.002;2022-12-07T12:13:16;4.80;99.90
324;DHT22;149;51.094;17.002;2022-12-07T12:19:23;4.60;99.90
324;DHT22;149;51.094;17.002;2022-12-07T12:22:06;4.70;99.90
324;DHT22;149;51.094;17.002;2022-12-07T12:24:34;4.80;99.90
324;DHT22;149;51.094;17.002;2022-12-07T12:27:09;4.90;99.90
324;DHT22;149;51.094;17.002;2022-12-07T12:29:41;5.90;99.90
324;DHT22;149;51.094;17.002;2022-12-07T12:37:48;5.10;99.90
324;DHT22;149;51.094;17.002;2022-12-07T12:42:50;5.00;99.90
324;DHT22;149;51.094;17.002;2022-12-07T12:45:29;5.00;99.90
324;DHT22;149;51.094;17.002;2022-12-07T12:47:58;4.90;99.90
324;DHT22;149;51.094;17.002;2022-12-07T12:50:32;4.90;99.90
324;DHT22;149;51.094;17.002;2022-12-07T12:56:23;4.90;99.90
324;DHT22;149;51.094;17.002;2022-12-07T12:59:23;4.90;99.90
324;DHT22;149;51.094;17.002;2022-12-07T13:15:50;5.10;99.90
324;DHT22;149;51.094;17.002;2022-12-07T13:18:25;5.00;99.90
324;DHT22;149;51.094;17.002;2022-12-07T13:26:35;4.90;99.90
324;DHT22;149;51.094;17.002;2022-12-07T13:29:19;4.90;99.90
324;DHT22;149;51.094;17.002;2022-12-07T13:31:55;4.90;99.90
324;DHT22;149;51.094;17.002;2022-12-07T13:34:37;5.00;99.90
324;DHT22;149;51.094;17.002;2022-12-07T13:37:25;5.00;99.90
324;DHT22;149;51.094;17.002;2022-12-07T13:39:59;5.10;99.90
324;DHT22;149;51.094;17.002;2022-12-07T13:42:31;5.20;99.90
324;DHT22;149;51.094;17.002;2022-12-07T13:45:00;5.30;99.90
324;DHT22;149;51.094;17.002;2022-12-07T13:49:58;4.80;99.90
324;DHT22;149;51.094;17.002;2022-12-07T13:52:27;4.70;99.90
324;DHT22;149;51.094;17.002;2022-12-07T13:55:21;4.50;99.90
324;DHT22;149;51.094;17.002;2022-12-07T13:57:51;4.50;99.90
324;DHT22;149;51.094;17.002;2022-12-07T14:00:24;4.30;99.90
324;DHT22;149;51.094;17.002;2022-12-07T14:03:01;4.30;99.90
324;DHT22;149;51.094;17.002;2022-12-07T14:05:31;4.30;99.90
324;DHT22;149;51.094;17.002;2022-12-07T14:08:00;4.50;99.90
324;DHT22;149;51.094;17.002;2022-12-07T14:10:32;5.50;99.90
324;DHT22;149;51.094;17.002;2022-12-07T14:13:02;4.50;99.90
324;DHT22;149;51.094;17.002;2022-12-07T14:15:31;4.50;99.90
324;DHT22;149;51.094;17.002;2022-12-07T14:18:02;5.10;99.90
324;DHT22;149;51.094;17.002;2022-12-07T14:20:40;4.50;99.90
324;DHT22;149;51.094;17.002;2022-12-07T14:23:24;5.20;99.90
324;DHT22;149;51.094;17.002;2022-12-07T14:26:08;4.90;99.90
324;DHT22;149;51.094;17.002;2022-12-07T14:28:41;4.30;99.90
324;DHT22;149;51.094;17.002;2022-12-07T14:31:28;5.30;99.90
324;DHT22;149;51.094;17.002;2022-12-07T14:34:01;4.70;99.90
324;DHT22;149;51.094;17.002;2022-12-07T14:36:28;4.60;99.90
324;DHT22;149;51.094;17.002;2022-12-07T14:38:55;3.70;99.90
324;DHT22;149;51.094;17.002;2022-12-07T14:41:27;3.90;99.90
324;DHT22;149;51.094;17.002;2022-12-07T14:44:13;4.40;99.90
324;DHT22;149;51.094;17.002;2022-12-07T14:46:51;4.10;99.90
324;DHT22;149;51.094;17.002;2022-12-07T14:49:39;4.70;99.90
324;DHT22;149;51.094;17.002;2022-12-07T14:52:19;3.60;99.90
324;DHT22;149;51.094;17.002;2022-12-07T14:57:53;4.30;99.90
324;DHT22;149;51.094;17.002;2022-12-07T15:00:21;3.40;99.90
324;DHT22;149;51.094;17.002;2022-12-07T15:02:49;3.60;99.90
324;DHT22;149;51.094;17.002;2022-12-07T15:05:17;3.60;99.90
324;DHT22;149;51.094;17.002;2022-12-07T15:07:46;3.30;99.90
324;DHT22;149;51.094;17.002;2022-12-07T15:10:25;3.50;99.90
324;DHT22;149;51.094;17.002;2022-12-07T15:13:01;3.40;99.90
324;DHT22;149;51.094;17.002;2022-12-07T15:15:48;3.20;99.90
324;DHT22;149;51.094;17.002;2022-12-07T15:18:21;4.00;99.90
324;DHT22;149;51.094;17.002;2022-12-07T15:20:50;3.50;99.90
324;DHT22;149;51.094;17.002;2022-12-07T15:23:17;2.80;99.90
324;DHT22;149;51.094;17.002;2022-12-07T15:25:47;3.80;99.90
324;DHT22;149;51.094;17.002;2022-12-07T15:28:14;3.20;99.90
324;DHT22;149;51.094;17.002;2022-12-07T15:30:42;3.30;99.90
324;DHT22;149;51.094;17.002;2022-12-07T15:33:11;4.60;99.90
324;DHT22;149;51.094;17.002;2022-12-07T15:35:43;3.40;99.90
324;DHT22;149;51.094;17.002;2022-12-07T15:38:11;3.70;99.90
324;DHT22;149;51.094;17.002;2022-12-07T15:40:40;3.60;99.90
324;DHT22;149;51.094;17.002;2022-12-07T15:43:11;3.90;99.90
324;DHT22;149;51.094;17.002;2022-12-07T15:45:58;3.60;99.90
324;DHT22;149;51.094;17.002;2022-12-07T15:48:26;3.60;99.90
324;DHT22;149;51.094;17.002;2022-12-07T15:51:05;3.60;99.90
324;DHT22;149;51.094;17.002;2022-12-07T15:53:33;5.00;99.90
324;DHT22;149;51.094;17.002;2022-12-07T15:56:00;4.10;99.90
324;DHT22;149;51.094;17.002;2022-12-07T15:58:27;3.40;99.90
324;DHT22;149;51.094;17.002;2022-12-07T16:00:54;4.20;99.90
324;DHT22;149;51.094;17.002;2022-12-07T16:03:21;4.90;99.90
324;DHT22;149;51.094;17.002;2022-12-07T16:05:52;4.10;99.90
324;DHT22;149;51.094;17.002;2022-12-07T16:08:21;3.70;99.90
324;DHT22;149;51.094;17.002;2022-12-07T16:10:47;3.60;99.90
324;DHT22;149;51.094;17.002;2022-12-07T16:13:14;4.90;99.90
324;DHT22;149;51.094;17.002;2022-12-07T16:15:42;3.60;99.90
324;DHT22;149;51.094;17.002;2022-12-07T16:18:09;3.50;99.90
324;DHT22;149;51.094;17.002;2022-12-07T16:20:36;4.40;99.90
324;DHT22;149;51.094;17.002;2022-12-07T16:23:03;4.40;99.90
324;DHT22;149;51.094;17.002;2022-12-07T16:25:30;4.30;99.90
324;DHT22;149;51.094;17.002;2022-12-07T16:27:59;2.30;99.90
324;DHT22;149;51.094;17.002;2022-12-07T16:30:30;4.50;99.90
324;DHT22;149;51.094;17.002;2022-12-07T16:32:58;4.30;99.90
324;DHT22;149;51.094;17.002;2022-12-07T16:35:28;2.90;99.90
324;DHT22;149;51.094;17.002;2022-12-07T16:37:55;3.90;99.90
324;DHT22;149;51.094;17.002;2022-12-07T16:40:22;4.10;99.90
324;DHT22;149;51.094;17.002;2022-12-07T16:42:50;3.30;99.90
324;DHT22;149;51.094;17.002;2022-12-07T16:45:17;4.30;99.90
324;DHT22;149;51.094;17.002;2022-12-07T16:47:46;3.20;99.90
324;DHT22;149;51.094;17.002;2022-12-07T16:50:15;3.30;99.90
324;DHT22;149;51.094;17.002;2022-12-07T16:52:42;4.00;99.90
324;DHT22;149;51.094;17.002;2022-12-07T16:55:09;4.20;99.90
324;DHT22;149;51.094;17.002;2022-12-07T16:57:36;3.00;99.90
324;DHT22;149;51.094;17.002;2022-12-07T17:00:05;3.70;99.90
324;DHT22;149;51.094;17.002;2022-12-07T17:02:32;3.10;99.90
324;DHT22;149;51.094;17.002;2022-12-07T17:04:59;4.20;99.90
324;DHT22;149;51.094;17.002;2022-12-07T17:07:30;3.20;99.90
324;DHT22;149;51.094;17.002;2022-12-07T17:09:59;3.80;99.90
324;DHT22;149;51.094;17.002;2022-12-07T17:12:26;4.10;99.90
324;DHT22;149;51.094;17.002;2022-12-07T17:14:53;4.60;99.90
324;DHT22;149;51.094;17.002;2022-12-07T17:17:57;4.10;99.90
324;DHT22;149;51.094;17.002;2022-12-07T17:20:26;3.90;99.90
324;DHT22;149;51.094;17.002;2022-12-07T17:22:54;2.90;99.90
324;DHT22;149;51.094;17.002;2022-12-07T17:25:23;4.10;99.90
324;DHT22;149;51.094;17.002;2022-12-07T17:27:51;2.60;99.90
324;DHT22;149;51.094;17.002;2022-12-07T17:30:19;2.60;99.90
324;DHT22;149;51.094;17.002;2022-12-07T17:32:46;3.90;99.90
324;DHT22;149;51.094;17.002;2022-12-07T17:35:14;3.10;99.90
324;DHT22;149;51.094;17.002;2022-12-07T17:38:07;2.80;99.90
324;DHT22;149;51.094;17.002;2022-12-07T17:40:35;2.20;99.90
324;DHT22;149;51.094;17.002;2022-12-07T17:43:02;3.60;99.90
324;DHT22;149;51.094;17.002;2022-12-07T17:45:29;2.60;99.90
324;DHT22;149;51.094;17.002;2022-12-07T17:47:57;2.20;99.90
324;DHT22;149;51.094;17.002;2022-12-07T17:50:24;2.30;99.90
324;DHT22;149;51.094;17.002;2022-12-07T17:53:11;2.30;99.90
324;DHT22;149;51.094;17.002;2022-12-07T17:55:39;3.80;99.90
324;DHT22;149;51.094;17.002;2022-12-07T17:58:27;2.60;99.90
324;DHT22;149;51.094;17.002;2022-12-07T18:00:54;3.10;99.90
324;DHT22;149;51.094;17.002;2022-12-07T18:03:21;3.20;99.90
324;DHT22;149;51.094;17.002;2022-12-07T18:05:52;1.80;99.90
324;DHT22;149;51.094;17.002;2022-12-07T18:08:19;2.10;99.90
324;DHT22;149;51.094;17.002;2022-12-07T18:10:47;3.40;99.90
324;DHT22;149;51.094;17.002;2022-12-07T18:13:14;2.70;99.90
324;DHT22;149;51.094;17.002;2022-12-07T18:16:04;2.70;99.90
324;DHT22;149;51.094;17.002;2022-12-07T18:18:32;1.90;99.90
324;DHT22;149;51.094;17.002;2022-12-07T18:21:04;1.70;99.90
324;DHT22;149;51.094;17.002;2022-12-07T18:23:31;1.60;99.90
324;DHT22;149;51.094;17.002;2022-12-07T18:25:59;1.30;99.90
324;DHT22;149;51.094;17.002;2022-12-07T18:28:39;2.10;99.90
324;DHT22;149;51.094;17.002;2022-12-07T18:31:12;3.30;99.90
324;DHT22;149;51.094;17.002;2022-12-07T18:33:43;3.80;99.90
324;DHT22;149;51.094;17.002;2022-12-07T18:36:13;2.20;99.90
324;DHT22;149;51.094;17.002;2022-12-07T18:38:44;1.50;99.90
324;DHT22;149;51.094;17.002;2022-12-07T18:41:12;0.10;99.90
324;DHT22;149;51.094;17.002;2022-12-07T18:43:41;2.40;99.90
324;DHT22;149;51.094;17.002;2022-12-07T18:46:16;1.40;99.90
324;DHT22;149;51.094;17.002;2022-12-07T18:48:45;2.90;99.90
324;DHT22;149;51.094;17.002;2022-12-07T18:51:14;2.80;99.90
324;DHT22;149;51.094;17.002;2022-12-07T18:53:41;0.00;99.90
324;DHT22;149;51.094;17.002;2022-12-07T18:56:22;1.40;99.90
324;DHT22;149;51.094;17.002;2022-12-07T18:58:56;1.40;99.90
324;DHT22;149;51.094;17.002;2022-12-07T19:01:56;1.10;99.90
324;DHT22;149;51.094;17.002;2022-12-07T19:04:27;1.30;99.90
324;DHT22;149;51.094;17.002;2022-12-07T19:07:11;1.10;99.90
324;DHT22;149;51.094;17.002;2022-12-07T19:09:39;1.40;99.90
324;DHT22;149;51.094;17.002;2022-12-07T19:12:20;1.50;99.90